Ayden, North Carolina
Current Conditions -  °F | °C
As of 7:35 PM on Monday 22 Dec 2014 (Local Time) from KPGV Reporting Station
Haze Haze  
Wind Chill: 39°   Ceiling: 300
Heat Index: 43°   Visibility: 2mi
Dew Point: 43°   Wind: 7mph
Humidity: 100%   Direction: 350°N
Pressure: 30.07"   Gusts: NA
Location:  35.47°N, 77.42°W
Report Text: KPGV 230035Z AUTO 35006KT 2SM BR OVC003 06/06 A3007 RMK AO2
Loading
Personal Weather Stations






























Interactive Weather Map New forecast layout! Learn more

10-Day Weather Forecast

Advertisements
Track Severe Weather on mobile